Time,TemperatureF,DewpointF,PressureIn,WindDirection,WindDirectionDegrees,WindSpeedMPH,WindSpeedGustMPH,Humidity,HourlyPrecipIn,Conditions,Clouds,dailyrainin,SoftwareType,DateUTC
2013-05-20 00:04:00,61.4,61.0,30.12,West,261,0.0,0.0,97,0.00,,,0.00,weatherlink.com 1.10,2013-05-20 04:04:00,
2013-05-20 00:19:00,61.3,61.0,30.12,West,261,0.0,0.0,97,0.00,,,0.00,weatherlink.com 1.10,2013-05-20 04:19:00,
2013-05-20 00:34:00,61.3,61.0,30.11,West,261,0.0,0.0,97,0.00,,,0.00,weatherlink.com 1.10,2013-05-20 04:34:00,
2013-05-20 00:49:00,61.1,60.0,30.11,West,261,0.0,0.0,97,0.00,,,0.00,weatherlink.com 1.10,2013-05-20 04:49:00,
2013-05-20 01:04:00,60.7,60.0,30.11,West,261,0.0,0.0,97,0.00,,,0.00,weatherlink.com 1.10,2013-05-20 05:04:00,
2013-05-20 01:19:00,60.5,60.0,30.11,West,261,0.0,0.0,97,0.00,,,0.00,weatherlink.com 1.10,2013-05-20 05:19:00,
2013-05-20 01:34:00,60.5,60.0,30.12,West,261,0.0,0.0,98,0.00,,,0.00,weatherlink.com 1.10,2013-05-20 05:34:00,
2013-05-20 01:49:00,60.2,59.0,30.12,West,261,0.0,0.0,97,0.00,,,0.00,weatherlink.com 1.10,2013-05-20 05:49:00,
2013-05-20 02:04:00,60.1,60.0,30.12,West,261,0.0,0.0,98,0.00,,,0.00,weatherlink.com 1.10,2013-05-20 06:04:00,
2013-05-20 02:20:00,59.4,59.0,30.11,West,261,0.0,0.0,97,0.00,,,0.00,weatherlink.com 1.10,2013-05-20 06:20:00,
2013-05-20 02:35:00,59.4,59.0,30.11,West,261,0.0,0.0,98,0.00,,,0.00,weatherlink.com 1.10,2013-05-20 06:35:00,
2013-05-20 02:50:00,59.5,59.0,30.12,West,261,0.0,0.0,98,0.00,,,0.00,weatherlink.com 1.10,2013-05-20 06:50:00,
2013-05-20 03:05:00,59.9,59.0,30.12,West,261,0.0,0.0,98,0.00,,,0.00,weatherlink.com 1.10,2013-05-20 07:05:00,
2013-05-20 03:20:00,60.1,60.0,30.11,West,261,0.0,0.0,98,0.00,,,0.00,weatherlink.com 1.10,2013-05-20 07:20:00,
2013-05-20 03:35:00,59.6,59.0,30.12,West,261,0.0,0.0,98,0.00,,,0.00,weatherlink.com 1.10,2013-05-20 07:35:00,
2013-05-20 03:50:00,60.0,60.0,30.12,West,261,0.0,0.0,98,0.00,,,0.00,weatherlink.com 1.10,2013-05-20 07:50:00,
2013-05-20 04:05:00,60.3,60.0,30.12,West,261,0.0,0.0,98,0.00,,,0.00,weatherlink.com 1.10,2013-05-20 08:05:00,
2013-05-20 04:20:00,60.2,60.0,30.12,West,261,0.0,0.0,98,0.00,,,0.00,weatherlink.com 1.10,2013-05-20 08:20:00,
2013-05-20 04:35:00,60.0,60.0,30.12,West,261,0.0,0.0,98,0.00,,,0.00,weatherlink.com 1.10,2013-05-20 08:35:00,
2013-05-20 04:50:00,60.0,60.0,30.11,West,261,0.0,0.0,98,0.00,,,0.00,weatherlink.com 1.10,2013-05-20 08:50:00,
2013-05-20 05:05:00,60.0,60.0,30.12,West,261,0.0,0.0,98,0.00,,,0.00,weatherlink.com 1.10,2013-05-20 09:05:00,
2013-05-20 05:20:00,60.4,60.0,30.11,West,261,0.0,0.0,99,0.00,,,0.00,weatherlink.com 1.10,2013-05-20 09:20:00,
2013-05-20 05:35:00,60.1,60.0,30.11,West,261,0.0,0.0,98,0.00,,,0.00,weatherlink.com 1.10,2013-05-20 09:35:00,
2013-05-20 05:50:00,59.9,59.0,30.11,West,261,0.0,0.0,98,0.00,,,0.00,weatherlink.com 1.10,2013-05-20 09:50:00,
2013-05-20 06:05:00,60.0,60.0,30.11,West,261,0.0,0.0,98,0.00,,,0.00,weatherlink.com 1.10,2013-05-20 10:05:00,
2013-05-20 06:20:00,60.2,60.0,30.12,West,261,0.0,0.0,98,0.00,,,0.00,weatherlink.com 1.10,2013-05-20 10:20:00,
2013-05-20 06:35:00,60.0,60.0,30.11,West,261,0.0,0.0,98,0.00,,,0.00,weatherlink.com 1.10,2013-05-20 10:35:00,
2013-05-20 06:50:00,59.6,59.0,30.14,West,261,0.0,0.0,98,0.00,,,0.00,weatherlink.com 1.10,2013-05-20 10:50:00,
2013-05-20 07:05:00,59.3,59.0,30.14,West,261,0.0,0.0,98,0.00,,,0.00,weatherlink.com 1.10,2013-05-20 11:05:00,
2013-05-20 07:20:00,59.4,59.0,30.14,West,261,0.0,0.0,98,0.00,,,0.00,weatherlink.com 1.10,2013-05-20 11:20:00,
2013-05-20 07:35:00,59.3,59.0,30.14,West,261,0.0,0.0,98,0.00,,,0.00,weatherlink.com 1.10,2013-05-20 11:35:00,
2013-05-20 07:50:00,59.6,59.0,30.14,West,261,0.0,0.0,98,0.00,,,0.00,weatherlink.com 1.10,2013-05-20 11:50:00,
2013-05-20 08:05:00,59.9,60.0,30.14,West,261,0.0,0.0,99,0.00,,,0.00,weatherlink.com 1.10,2013-05-20 12:05:00,
2013-05-20 08:20:00,60.8,61.0,30.15,West,261,0.0,0.0,99,0.00,,,0.00,weatherlink.com 1.10,2013-05-20 12:20:00,
2013-05-20 08:35:00,61.3,61.0,30.15,West,261,0.0,0.0,99,0.00,,,0.00,weatherlink.com 1.10,2013-05-20 12:35:00,
2013-05-20 08:50:00,62.0,62.0,30.15,West,260,0.0,0.0,99,0.00,,,0.00,weatherlink.com 1.10,2013-05-20 12:50:00,
2013-05-20 09:05:00,62.2,62.0,30.16,West,261,0.0,0.0,99,0.00,,,0.00,weatherlink.com 1.10,2013-05-20 13:05:00,
2013-05-20 09:20:00,62.3,62.0,30.16,West,261,0.0,0.0,99,0.00,,,0.00,weatherlink.com 1.10,2013-05-20 13:20:00,
2013-05-20 09:35:00,62.7,63.0,30.16,West,261,0.0,0.0,99,0.00,,,0.00,weatherlink.com 1.10,2013-05-20 13:35:00,
2013-05-20 09:50:00,63.1,63.0,30.17,West,260,0.0,0.0,99,0.00,,,0.00,weatherlink.com 1.10,2013-05-20 13:50:00,
2013-05-20 10:05:00,63.6,63.0,30.17,West,260,0.0,0.0,99,0.00,,,0.00,weatherlink.com 1.10,2013-05-20 14:05:00,
2013-05-20 10:20:00,64.9,64.0,30.16,West,271,0.0,0.0,96,0.00,,,0.00,weatherlink.com 1.10,2013-05-20 14:20:00,
2013-05-20 10:35:00,66.7,65.0,30.16,West,271,0.0,0.0,95,0.00,,,0.00,weatherlink.com 1.10,2013-05-20 14:35:00,
2013-05-20 10:50:00,68.5,66.0,30.16,West,270,0.0,0.0,91,0.00,,,0.00,weatherlink.com 1.10,2013-05-20 14:50:00,
2013-05-20 11:05:00,70.2,66.0,30.16,West,269,0.0,0.0,87,0.00,,,0.00,weatherlink.com 1.10,2013-05-20 15:05:00,
2013-05-20 11:20:00,70.4,66.0,30.16,West,269,0.0,0.0,85,0.00,,,0.00,weatherlink.com 1.10,2013-05-20 15:20:00,
2013-05-20 11:35:00,71.9,67.0,30.16,West,269,0.0,0.0,85,0.00,,,0.00,weatherlink.com 1.10,2013-05-20 15:35:00,
2013-05-20 11:50:00,72.9,67.0,30.16,West,269,0.0,0.0,81,0.00,,,0.00,weatherlink.com 1.10,2013-05-20 15:50:00,
2013-05-20 12:06:00,74.1,66.0,30.16,West,269,0.0,0.0,75,0.00,,,0.00,weatherlink.com 1.10,2013-05-20 16:06:00,
2013-05-20 12:21:00,75.0,68.0,30.16,West,269,0.0,0.0,79,0.00,,,0.00,weatherlink.com 1.10,2013-05-20 16:21:00,
2013-05-20 12:36:00,75.7,65.0,30.15,WSW,253,0.0,0.0,70,0.00,,,0.00,weatherlink.com 1.10,2013-05-20 16:36:00,
2013-05-20 12:51:00,75.5,68.0,30.14,West,281,0.0,0.0,77,0.00,,,0.00,weatherlink.com 1.10,2013-05-20 16:51:00,
2013-05-20 13:06:00,75.8,67.0,30.14,South,186,0.0,0.0,73,0.00,,,0.00,weatherlink.com 1.10,2013-05-20 17:06:00,
2013-05-20 13:21:00,75.7,66.0,30.13,SW,221,0.0,0.0,71,0.00,,,0.00,weatherlink.com 1.10,2013-05-20 17:21:00,
2013-05-20 13:36:00,76.0,62.0,30.13,WNW,288,0.0,0.0,63,0.00,,,0.00,weatherlink.com 1.10,2013-05-20 17:36:00,
2013-05-20 13:51:00,76.6,63.0,30.12,WNW,287,0.0,0.0,62,0.00,,,0.00,weatherlink.com 1.10,2013-05-20 17:51:00,
2013-05-20 14:06:00,77.7,64.0,30.12,West,274,0.0,0.0,63,0.00,,,0.00,weatherlink.com 1.10,2013-05-20 18:06:00,
2013-05-20 14:21:00,78.7,63.0,30.11,WSW,248,0.0,0.0,58,0.00,,,0.00,weatherlink.com 1.10,2013-05-20 18:21:00,
2013-05-20 14:36:00,78.7,64.0,30.11,WNW,289,0.0,0.0,60,0.00,,,0.00,weatherlink.com 1.10,2013-05-20 18:36:00,
2013-05-20 14:51:00,79.3,64.0,30.11,NNE,29,0.0,0.0,59,0.00,,,0.00,weatherlink.com 1.10,2013-05-20 18:51:00,
2013-05-20 15:06:00,78.8,65.0,30.10,WNW,301,0.0,0.0,62,0.00,,,0.00,weatherlink.com 1.10,2013-05-20 19:06:00,
2013-05-20 15:21:00,78.8,65.0,30.10,NNW,338,0.0,0.0,62,0.00,,,0.00,weatherlink.com 1.10,2013-05-20 19:21:00,
2013-05-20 15:36:00,79.4,66.0,30.09,West,270,0.0,0.0,64,0.00,,,0.00,weatherlink.com 1.10,2013-05-20 19:36:00,
2013-05-20 15:51:00,80.0,65.0,30.09,West,278,0.0,0.0,60,0.00,,,0.00,weatherlink.com 1.10,2013-05-20 19:51:00,
2013-05-20 16:06:00,79.7,64.0,30.08,West,259,0.0,0.0,60,0.00,,,0.00,weatherlink.com 1.10,2013-05-20 20:06:00,
2013-05-20 16:21:00,78.9,67.0,30.09,SW,215,0.0,0.0,66,0.00,,,0.00,weatherlink.com 1.10,2013-05-20 20:21:00,
2013-05-20 16:36:00,77.5,67.0,30.10,SW,215,0.0,0.0,71,0.00,,,0.00,weatherlink.com 1.10,2013-05-20 20:36:00,
2013-05-20 16:51:00,76.2,68.0,30.10,SW,215,0.0,0.0,76,0.00,,,0.00,weatherlink.com 1.10,2013-05-20 20:51:00,
2013-05-20 17:06:00,75.4,69.0,30.10,SW,215,0.0,0.0,79,0.00,,,0.00,weatherlink.com 1.10,2013-05-20 21:06:00,
2013-05-20 17:21:00,74.4,67.0,30.10,SW,215,0.0,0.0,78,0.00,,,0.00,weatherlink.com 1.10,2013-05-20 21:21:00,
2013-05-20 17:36:00,73.8,67.0,30.10,SW,215,0.0,0.0,80,0.00,,,0.00,weatherlink.com 1.10,2013-05-20 21:36:00,
2013-05-20 17:51:00,73.6,67.0,30.10,WSW,246,0.0,0.0,81,0.00,,,0.00,weatherlink.com 1.10,2013-05-20 21:51:00,
2013-05-20 18:06:00,73.6,68.0,30.10,WSW,246,0.0,0.0,82,0.00,,,0.00,weatherlink.com 1.10,2013-05-20 22:06:00,
2013-05-20 18:21:00,73.5,68.0,30.10,WSW,246,0.0,0.0,82,0.00,,,0.00,weatherlink.com 1.10,2013-05-20 22:21:00,
2013-05-20 18:36:00,73.5,68.0,30.09,WSW,254,0.0,0.0,83,0.00,,,0.00,weatherlink.com 1.10,2013-05-20 22:36:00,
2013-05-20 18:51:00,73.6,68.0,30.08,West,259,0.0,0.0,82,0.00,,,0.00,weatherlink.com 1.10,2013-05-20 22:51:00,
2013-05-20 19:06:00,73.7,68.0,30.08,West,259,0.0,0.0,82,0.00,,,0.00,weatherlink.com 1.10,2013-05-20 23:06:00,
2013-05-20 19:21:00,73.5,67.0,30.08,West,259,0.0,0.0,81,0.00,,,0.00,weatherlink.com 1.10,2013-05-20 23:21:00,
2013-05-20 19:36:00,73.0,67.0,30.08,West,259,0.0,0.0,82,0.00,,,0.00,weatherlink.com 1.10,2013-05-20 23:36:00,
2013-05-20 19:51:00,72.4,67.0,30.08,West,259,0.0,0.0,83,0.00,,,0.00,weatherlink.com 1.10,2013-05-20 23:51:00,
2013-05-20 20:06:00,71.5,67.0,30.08,West,259,0.0,0.0,84,0.00,,,0.00,weatherlink.com 1.10,2013-05-21 00:06:00,
2013-05-20 20:21:00,70.7,66.0,30.08,West,259,0.0,0.0,85,0.00,,,0.00,weatherlink.com 1.10,2013-05-21 00:21:00,
2013-05-20 20:36:00,69.7,65.0,30.09,West,259,0.0,0.0,86,0.00,,,0.00,weatherlink.com 1.10,2013-05-21 00:36:00,
2013-05-20 20:51:00,69.2,65.0,30.10,West,259,0.0,0.0,86,0.00,,,0.00,weatherlink.com 1.10,2013-05-21 00:51:00,
2013-05-20 21:06:00,68.8,65.0,30.10,West,259,0.0,0.0,87,0.00,,,0.00,weatherlink.com 1.10,2013-05-21 01:06:00,
2013-05-20 21:21:00,68.3,65.0,30.09,West,259,0.0,0.0,88,0.00,,,0.00,weatherlink.com 1.10,2013-05-21 01:21:00,
2013-05-20 21:36:00,67.9,65.0,30.10,West,259,0.0,0.0,89,0.00,,,0.00,weatherlink.com 1.10,2013-05-21 01:36:00,
2013-05-20 21:51:00,67.4,65.0,30.10,West,259,0.0,0.0,90,0.00,,,0.00,weatherlink.com 1.10,2013-05-21 01:51:00,
2013-05-20 22:06:00,66.9,64.0,30.11,West,259,0.0,0.0,90,0.00,,,0.00,weatherlink.com 1.10,2013-05-21 02:06:00,
2013-05-20 22:21:00,66.3,64.0,30.10,West,259,0.0,0.0,92,0.00,,,0.00,weatherlink.com 1.10,2013-05-21 02:21:00,
2013-05-20 22:36:00,65.9,64.0,30.11,West,259,0.0,0.0,93,0.00,,,0.00,weatherlink.com 1.10,2013-05-21 02:36:00,
2013-05-20 22:51:00,65.2,64.0,30.11,West,259,0.0,0.0,94,0.00,,,0.00,weatherlink.com 1.10,2013-05-21 02:51:00,
2013-05-20 23:06:00,64.8,63.0,30.11,West,259,0.0,0.0,94,0.00,,,0.00,weatherlink.com 1.10,2013-05-21 03:06:00,
2013-05-20 23:21:00,64.5,63.0,30.10,West,259,0.0,0.0,94,0.00,,,0.00,weatherlink.com 1.10,2013-05-21 03:21:00,
2013-05-20 23:36:00,64.3,63.0,30.10,West,259,0.0,0.0,95,0.00,,,0.00,weatherlink.com 1.10,2013-05-21 03:36:00,
2013-05-20 23:51:00,64.1,63.0,30.10,West,259,0.0,0.0,95,0.00,,,0.00,weatherlink.com 1.10,2013-05-21 03:51:00,